createdAt,value
2023-04-18T00:01:45.652Z,48.40
2023-04-18T00:04:14.144Z,48.40
2023-04-18T00:06:41.226Z,48.40
2023-04-18T00:09:07.988Z,48.40
2023-04-18T00:11:35.022Z,48.30
2023-04-18T00:14:03.316Z,48.40
2023-04-18T00:16:30.552Z,48.30
2023-04-18T00:18:57.522Z,48.30
2023-04-18T00:21:25.561Z,48.30
2023-04-18T00:23:52.463Z,48.20
2023-04-18T00:26:19.303Z,48.20
2023-04-18T00:28:46.002Z,48.20
2023-04-18T00:31:12.712Z,48.20
2023-04-18T00:33:39.456Z,48.10
2023-04-18T00:36:06.364Z,48.00
2023-04-18T00:38:33.017Z,48.00
2023-04-18T00:40:59.792Z,48.00
2023-04-18T00:43:26.882Z,48.00
2023-04-18T00:45:53.983Z,48.00
2023-04-18T00:48:20.993Z,48.00
2023-04-18T00:50:47.781Z,48.00
2023-04-18T00:53:15.820Z,48.00
2023-04-18T00:55:42.565Z,47.90
2023-04-18T00:58:09.660Z,47.90
2023-04-18T01:00:36.923Z,47.90
2023-04-18T01:03:03.914Z,47.90
2023-04-18T01:05:30.846Z,47.90
2023-04-18T01:08:01.051Z,47.90
2023-04-18T01:10:28.914Z,47.80
2023-04-18T01:13:16.865Z,47.90
2023-04-18T01:15:45.291Z,47.80
2023-04-18T01:18:13.311Z,47.80
2023-04-18T01:20:42.772Z,47.70
2023-04-18T01:23:12.384Z,47.60
2023-04-18T01:25:39.319Z,47.60
2023-04-18T01:28:06.773Z,47.50
2023-04-18T01:30:34.380Z,47.50
2023-04-18T01:33:02.809Z,47.50
2023-04-18T01:35:29.778Z,47.50
2023-04-18T01:37:57.264Z,47.40
2023-04-18T01:40:24.652Z,47.40
2023-04-18T01:42:51.825Z,47.40
2023-04-18T01:45:20.012Z,47.40
2023-04-18T01:47:47.193Z,47.40
2023-04-18T01:50:14.603Z,47.40
2023-04-18T01:52:41.384Z,47.50
2023-04-18T01:55:08.481Z,47.50
2023-04-18T01:57:38.270Z,47.30
2023-04-18T02:00:06.514Z,47.30
2023-04-18T02:02:33.429Z,47.20
2023-04-18T02:05:00.344Z,47.20
2023-04-18T02:07:27.132Z,47.20
2023-04-18T02:09:53.834Z,47.10
2023-04-18T02:12:21.232Z,47.00
2023-04-18T02:14:52.360Z,46.80
2023-04-18T02:17:21.510Z,46.90
2023-04-18T02:19:48.322Z,46.80
2023-04-18T02:22:15.026Z,47.00
2023-04-18T02:24:41.757Z,46.70
2023-04-18T02:27:08.678Z,46.50
2023-04-18T02:29:35.413Z,46.60
2023-04-18T02:32:02.163Z,46.60
2023-04-18T02:34:28.934Z,46.50
2023-04-18T02:36:55.705Z,46.50
2023-04-18T02:39:22.371Z,46.50
2023-04-18T02:41:49.042Z,46.50
2023-04-18T02:44:17.099Z,46.50
2023-04-18T02:46:43.799Z,46.50
2023-04-18T02:49:10.576Z,46.40
2023-04-18T02:51:37.320Z,46.40
2023-04-18T02:54:04.066Z,46.40
2023-04-18T02:56:30.789Z,46.20
2023-04-18T02:58:57.473Z,46.10
2023-04-18T03:01:24.234Z,46.00
2023-04-18T03:03:51.122Z,46.00
2023-04-18T03:06:17.953Z,45.90
2023-04-18T03:08:44.723Z,45.90
2023-04-18T03:11:11.574Z,45.80
2023-04-18T03:13:38.288Z,45.70
2023-04-18T03:16:05.323Z,45.70
2023-04-18T03:18:32.110Z,45.70
2023-04-18T03:20:58.751Z,45.70
2023-04-18T03:23:25.423Z,45.60
2023-04-18T03:25:52.325Z,45.70
2023-04-18T03:28:19.036Z,45.50
2023-04-18T03:30:45.855Z,45.50
2023-04-18T03:33:14.451Z,45.50
2023-04-18T03:35:41.167Z,45.40
2023-04-18T03:38:07.902Z,45.40
2023-04-18T03:40:34.887Z,45.40
2023-04-18T03:43:01.555Z,45.40
2023-04-18T03:45:28.268Z,45.40
2023-04-18T03:47:55.296Z,45.20
2023-04-18T03:50:22.170Z,45.10
2023-04-18T03:52:48.824Z,45.10
2023-04-18T03:55:15.650Z,45.10
2023-04-18T03:57:42.332Z,44.90
2023-04-18T04:00:10.342Z,44.90
2023-04-18T04:02:37.274Z,44.90
2023-04-18T04:05:05.083Z,44.80
2023-04-18T04:07:32.458Z,44.90
2023-04-18T04:09:59.174Z,44.90
2023-04-18T04:12:26.013Z,44.80
2023-04-18T04:14:52.825Z,44.90
2023-04-18T04:17:19.569Z,44.70
2023-04-18T04:19:46.270Z,44.70
2023-04-18T04:22:12.942Z,44.70
2023-04-18T04:24:40.495Z,44.50
2023-04-18T04:27:08.030Z,44.60
2023-04-18T04:29:35.353Z,44.50
2023-04-18T04:32:02.225Z,44.50
2023-04-18T04:34:28.968Z,44.50
2023-04-18T04:36:55.678Z,44.50
2023-04-18T04:39:22.406Z,44.50
2023-04-18T04:41:49.429Z,44.50
2023-04-18T04:44:17.704Z,44.50
2023-04-18T04:46:44.913Z,44.50
2023-04-18T04:49:11.941Z,44.40
2023-04-18T04:51:39.857Z,44.20
2023-04-18T04:54:06.839Z,44.30
2023-04-18T04:56:33.710Z,44.30
2023-04-18T04:59:00.933Z,44.30
2023-04-18T05:01:27.813Z,44.20
2023-04-18T05:03:54.824Z,44.20
2023-04-18T05:06:22.758Z,44.20
2023-04-18T05:08:52.539Z,44.10
2023-04-18T05:11:19.234Z,44.10
2023-04-18T05:13:45.950Z,44.10
2023-04-18T05:16:12.748Z,44.20
2023-04-18T05:18:41.244Z,44.10
2023-04-18T05:21:08.117Z,44.00
2023-04-18T05:23:36.975Z,44.00
2023-04-18T05:26:06.870Z,44.00
2023-04-18T05:28:33.754Z,44.00
2023-04-18T05:31:03.743Z,44.00
2023-04-18T05:33:31.443Z,44.00
2023-04-18T05:35:58.554Z,44.00
2023-04-18T05:38:25.502Z,44.10
2023-04-18T05:40:52.404Z,44.10
2023-04-18T05:43:19.846Z,44.20
2023-04-18T05:45:46.955Z,44.10
2023-04-18T05:48:14.124Z,44.10
2023-04-18T05:50:40.888Z,44.10
2023-04-18T05:53:07.564Z,44.00
2023-04-18T05:55:34.669Z,44.10
2023-04-18T05:58:01.429Z,44.10
2023-04-18T06:00:28.519Z,43.90
2023-04-18T06:02:55.403Z,44.10
2023-04-18T06:05:22.733Z,44.00
2023-04-18T06:07:49.728Z,44.00
2023-04-18T06:10:17.166Z,43.90
2023-04-18T06:12:43.945Z,44.00
2023-04-18T06:15:11.283Z,44.00
2023-04-18T06:17:38.137Z,44.00
2023-04-18T06:20:06.209Z,44.00
2023-04-18T06:22:34.074Z,44.00
2023-04-18T06:25:00.904Z,43.90
2023-04-18T06:27:31.684Z,43.80
2023-04-18T06:29:58.899Z,43.90
2023-04-18T06:32:26.082Z,43.90
2023-04-18T06:34:53.161Z,43.90
2023-04-18T06:37:20.463Z,43.90
2023-04-18T06:39:47.588Z,43.90
2023-04-18T06:42:14.304Z,43.90
2023-04-18T06:44:43.071Z,43.70
2023-04-18T06:47:10.816Z,43.90
2023-04-18T06:49:37.629Z,43.80
2023-04-18T06:52:04.399Z,43.90
2023-04-18T06:54:31.101Z,43.80
2023-04-18T06:56:57.814Z,43.90
2023-04-18T06:59:24.620Z,44.00
2023-04-18T07:01:51.700Z,43.80
2023-04-18T07:04:18.684Z,43.90
2023-04-18T07:06:45.809Z,44.20
2023-04-18T07:09:12.658Z,44.30
2023-04-18T07:11:40.664Z,44.00
2023-04-18T07:14:07.427Z,44.00
2023-04-18T07:16:34.766Z,43.90
2023-04-18T07:19:01.547Z,43.80
2023-04-18T07:21:28.313Z,43.90
2023-04-18T07:23:55.306Z,43.70
2023-04-18T07:26:22.164Z,43.90
2023-04-18T07:28:49.351Z,43.90
2023-04-18T07:31:16.562Z,43.90
2023-04-18T07:33:43.685Z,43.80
2023-04-18T07:36:10.800Z,43.90
2023-04-18T07:38:37.717Z,43.80
2023-04-18T07:41:04.806Z,44.00
2023-04-18T07:43:31.685Z,43.90
2023-04-18T07:45:58.602Z,44.00
2023-04-18T07:48:25.476Z,44.20
2023-04-18T07:50:52.468Z,44.00
2023-04-18T07:53:19.467Z,44.00
2023-04-18T07:55:46.701Z,44.00
2023-04-18T07:58:14.100Z,44.00
2023-04-18T08:00:43.762Z,44.20
2023-04-18T08:03:12.501Z,44.50
2023-04-18T08:05:40.534Z,44.60
2023-04-18T08:08:08.680Z,44.70
2023-04-18T08:10:36.236Z,44.90
2023-04-18T08:13:03.564Z,44.80
2023-04-18T08:15:32.348Z,44.80
2023-04-18T08:18:00.458Z,44.80
2023-04-18T08:20:27.698Z,44.70
2023-04-18T08:23:05.589Z,44.70
2023-04-18T08:25:36.240Z,44.60
2023-04-18T08:28:04.191Z,44.50
2023-04-18T08:30:31.720Z,44.30
2023-04-18T08:33:00.474Z,44.30
2023-04-18T08:35:27.278Z,44.20
2023-04-18T08:37:53.985Z,44.20
2023-04-18T08:40:21.060Z,44.20
2023-04-18T08:42:49.227Z,44.10
2023-04-18T08:45:16.179Z,43.90
2023-04-18T08:47:43.318Z,43.90
2023-04-18T08:50:10.615Z,43.90
2023-04-18T08:52:39.850Z,44.00
2023-04-18T08:55:07.373Z,44.00
2023-04-18T08:57:35.789Z,44.00
2023-04-18T09:00:05.685Z,43.90
2023-04-18T09:02:43.823Z,43.90
2023-04-18T09:05:16.578Z,43.90
2023-04-18T09:07:43.404Z,43.80
2023-04-18T09:10:11.188Z,43.90
2023-04-18T09:12:46.263Z,44.00
2023-04-18T09:15:15.548Z,44.00
2023-04-18T09:17:52.393Z,44.00
2023-04-18T09:20:41.287Z,44.00
2023-04-18T09:23:16.247Z,43.70
2023-04-18T09:25:46.734Z,43.80
2023-04-18T09:28:27.172Z,44.00
2023-04-18T09:30:54.935Z,44.00
2023-04-18T09:33:32.625Z,44.00
2023-04-18T09:36:21.329Z,44.20
2023-04-18T09:38:49.983Z,44.10
2023-04-18T09:41:20.082Z,44.10
2023-04-18T09:43:48.576Z,44.10
2023-04-18T09:46:17.912Z,44.00
2023-04-18T09:48:44.725Z,44.10
2023-04-18T09:51:18.690Z,44.00
2023-04-18T09:53:47.381Z,44.00
2023-04-18T09:56:26.113Z,44.00
2023-04-18T09:58:59.374Z,44.10
2023-04-18T10:01:29.779Z,44.00
2023-04-18T10:03:57.725Z,44.00
2023-04-18T10:06:27.590Z,43.90
2023-04-18T10:08:55.075Z,44.00
2023-04-18T10:11:23.698Z,44.10
2023-04-18T10:13:54.120Z,44.10
2023-04-18T10:16:21.377Z,44.00
2023-04-18T10:18:50.763Z,44.00
2023-04-18T10:21:17.477Z,44.20
2023-04-18T10:23:45.870Z,44.20
2023-04-18T10:26:12.681Z,44.20
2023-04-18T10:28:58.955Z,44.20
2023-04-18T10:31:27.454Z,44.10
2023-04-18T10:36:28.748Z,44.20
2023-04-18T10:39:04.009Z,44.20
2023-04-18T10:41:34.180Z,44.20
2023-04-18T10:44:09.734Z,44.20
2023-04-18T10:46:41.159Z,44.10
2023-04-18T10:49:20.625Z,44.10
2023-04-18T10:51:49.473Z,44.10
2023-04-18T10:54:35.684Z,44.10
2023-04-18T10:57:04.092Z,44.10
2023-04-18T10:59:32.288Z,44.20
2023-04-18T11:02:30.263Z,44.20
2023-04-18T11:05:02.143Z,44.20
2023-04-18T11:07:48.767Z,44.00
2023-04-18T11:10:24.577Z,44.00
2023-04-18T11:12:52.240Z,44.10
2023-04-18T11:15:23.803Z,44.10
2023-04-18T11:18:00.981Z,44.10
2023-04-18T11:20:29.131Z,44.00
2023-04-18T11:22:57.959Z,43.90
2023-04-18T11:25:31.987Z,43.80
2023-04-18T11:28:00.360Z,43.80
2023-04-18T11:30:27.633Z,43.70
2023-04-18T11:32:55.984Z,43.80
2023-04-18T11:35:22.855Z,43.90
2023-04-18T11:37:51.418Z,43.90
2023-04-18T11:40:18.346Z,43.80
2023-04-18T11:42:45.052Z,43.90
2023-04-18T11:45:14.099Z,43.90
2023-04-18T11:47:42.885Z,44.00
2023-04-18T11:50:11.700Z,43.90
2023-04-18T11:52:41.146Z,44.00
2023-04-18T11:55:17.894Z,44.00
2023-04-18T11:57:58.534Z,44.00
2023-04-18T12:00:32.560Z,44.00
2023-04-18T12:03:01.805Z,44.00
2023-04-18T12:05:38.504Z,44.10
2023-04-18T12:08:11.537Z,44.00
2023-04-18T12:10:49.077Z,44.00
2023-04-18T12:13:16.047Z,44.10
2023-04-18T12:15:44.892Z,44.10
2023-04-18T12:18:15.288Z,44.10
2023-04-18T12:20:50.598Z,44.10
2023-04-18T12:23:39.821Z,44.20
2023-04-18T12:26:08.356Z,44.10
2023-04-18T12:28:35.617Z,44.10
2023-04-18T12:31:02.921Z,44.20
2023-04-18T12:33:30.461Z,44.10
2023-04-18T12:35:57.396Z,44.10
2023-04-18T12:38:24.242Z,44.10
2023-04-18T12:40:52.076Z,44.10
2023-04-18T12:43:19.619Z,44.20
2023-04-18T12:45:47.194Z,44.20
2023-04-18T12:48:14.179Z,44.20
2023-04-18T12:50:41.131Z,44.20
2023-04-18T12:53:08.112Z,44.30
2023-04-18T12:55:34.876Z,44.20
2023-04-18T12:58:01.613Z,44.20
2023-04-18T13:00:31.208Z,44.20
2023-04-18T13:02:58.862Z,44.20
2023-04-18T13:05:29.848Z,44.20
2023-04-18T13:10:27.254Z,44.20
2023-04-18T13:12:53.990Z,44.20
2023-04-18T13:15:23.980Z,44.20
2023-04-18T13:17:50.801Z,44.30
2023-04-18T13:20:19.395Z,44.10
2023-04-18T13:22:46.149Z,44.20
2023-04-18T13:25:12.885Z,44.20
2023-04-18T13:27:41.979Z,44.10
2023-04-18T13:30:10.836Z,44.20
2023-04-18T13:32:39.097Z,44.20
2023-04-18T13:35:08.794Z,44.20
2023-04-18T13:37:35.738Z,44.20
2023-04-18T13:40:05.503Z,44.20
2023-04-18T13:42:36.912Z,44.30
2023-04-18T13:45:04.037Z,44.20
2023-04-18T13:47:30.870Z,44.30
2023-04-18T13:49:58.027Z,44.30
2023-04-18T13:52:25.848Z,44.30
2023-04-18T13:54:52.792Z,44.30
2023-04-18T13:57:19.494Z,44.30
2023-04-18T13:59:46.826Z,44.40
2023-04-18T14:02:13.689Z,44.50
2023-04-18T14:04:40.991Z,44.50
2023-04-18T14:07:08.052Z,44.50
2023-04-18T14:09:34.945Z,44.40
2023-04-18T14:12:02.172Z,44.40
2023-04-18T14:14:29.133Z,44.50
2023-04-18T14:16:55.933Z,44.50
2023-04-18T14:19:22.889Z,44.50
2023-04-18T14:21:49.636Z,44.60
2023-04-18T14:24:16.533Z,44.50
2023-04-18T14:26:43.227Z,44.60
2023-04-18T14:29:09.939Z,44.60
2023-04-18T14:31:36.855Z,44.60
2023-04-18T14:34:03.514Z,44.60
2023-04-18T14:36:30.956Z,44.60
2023-04-18T14:38:57.784Z,44.60
2023-04-18T14:41:24.506Z,44.60
2023-04-18T14:43:51.465Z,44.70
2023-04-18T14:46:18.135Z,44.70
2023-04-18T14:48:46.842Z,44.60
2023-04-18T14:51:15.649Z,44.60
2023-04-18T14:53:42.535Z,44.60
2023-04-18T14:56:09.326Z,44.50
2023-04-18T14:58:36.248Z,44.50
2023-04-18T15:01:04.197Z,44.50
2023-04-18T15:03:31.186Z,44.50
2023-04-18T15:05:58.127Z,44.50
2023-04-18T15:08:24.862Z,44.50
2023-04-18T15:10:51.511Z,44.40
2023-04-18T15:13:19.509Z,44.50
2023-04-18T15:15:56.642Z,44.50
2023-04-18T15:18:23.587Z,44.50
2023-04-18T15:20:50.665Z,44.50
2023-04-18T15:23:17.426Z,44.50
2023-04-18T15:25:45.209Z,44.50
2023-04-18T15:28:14.890Z,44.50
2023-04-18T15:30:41.698Z,44.50
2023-04-18T15:33:08.645Z,44.60
2023-04-18T15:35:35.900Z,44.60
2023-04-18T15:38:02.837Z,44.60
2023-04-18T15:40:29.720Z,44.60
2023-04-18T15:42:57.760Z,44.60
2023-04-18T15:45:24.528Z,44.60
2023-04-18T15:47:51.687Z,44.60
2023-04-18T15:50:18.533Z,44.50
2023-04-18T15:52:45.383Z,44.60
2023-04-18T15:55:13.200Z,44.60
2023-04-18T15:57:41.570Z,44.60
2023-04-18T16:00:17.732Z,44.60
2023-04-18T16:02:45.460Z,44.60
2023-04-18T16:05:13.637Z,44.60
2023-04-18T16:07:41.292Z,44.60
2023-04-18T16:10:10.243Z,44.60
2023-04-18T16:12:38.033Z,44.50
2023-04-18T16:15:09.475Z,44.60
2023-04-18T16:17:37.354Z,44.50
2023-04-18T16:20:05.991Z,44.50
2023-04-18T16:22:32.876Z,44.60
2023-04-18T16:24:59.705Z,44.60
2023-04-18T16:27:26.428Z,44.50
2023-04-18T16:29:53.812Z,44.60
2023-04-18T16:32:21.925Z,44.50
2023-04-18T16:34:48.852Z,44.40
2023-04-18T16:37:16.040Z,44.50
2023-04-18T16:39:42.756Z,44.40
2023-04-18T16:42:09.546Z,44.40
2023-04-18T16:44:36.279Z,44.40
2023-04-18T16:47:04.997Z,44.40
2023-04-18T16:49:31.852Z,44.40
2023-04-18T16:51:58.676Z,44.30
2023-04-18T16:54:25.356Z,44.30
2023-04-18T16:56:51.963Z,44.30
2023-04-18T16:59:18.659Z,44.40
2023-04-18T17:01:45.323Z,44.30
2023-04-18T17:04:12.344Z,44.30
2023-04-18T17:06:39.375Z,44.30
2023-04-18T17:09:06.418Z,44.30
2023-04-18T17:11:38.867Z,44.30
2023-04-18T17:14:07.717Z,44.30
2023-04-18T17:16:37.129Z,44.40
2023-04-18T17:19:03.888Z,44.30
2023-04-18T17:21:31.838Z,44.30
2023-04-18T17:24:01.764Z,44.30
2023-04-18T17:26:28.525Z,44.30
2023-04-18T17:28:55.268Z,44.30
2023-04-18T17:31:22.272Z,44.40
2023-04-18T17:33:51.702Z,44.40
2023-04-18T17:36:18.441Z,44.30
2023-04-18T17:38:48.891Z,44.30
2023-04-18T17:41:17.573Z,44.40
2023-04-18T17:43:44.926Z,44.40
2023-04-18T17:46:12.109Z,44.40
2023-04-18T17:48:38.844Z,44.40
2023-04-18T17:51:05.554Z,44.40
2023-04-18T17:53:32.584Z,44.40
2023-04-18T17:55:59.471Z,44.40
2023-04-18T17:58:26.970Z,44.40
2023-04-18T18:00:53.886Z,44.40
2023-04-18T18:03:20.804Z,44.40
2023-04-18T18:05:49.199Z,44.50
2023-04-18T18:08:15.982Z,44.50
2023-04-18T18:10:42.971Z,44.50
2023-04-18T18:13:09.781Z,44.50
2023-04-18T18:15:36.411Z,44.60
2023-04-18T18:18:03.158Z,44.60
2023-04-18T18:20:30.800Z,44.60
2023-04-18T18:22:59.776Z,44.60
2023-04-18T18:25:27.428Z,44.60
2023-04-18T18:27:54.624Z,44.60
2023-04-18T18:30:21.484Z,44.60
2023-04-18T18:32:48.387Z,44.60
2023-04-18T18:35:15.155Z,44.60
2023-04-18T18:37:42.062Z,44.60
2023-04-18T18:40:09.370Z,44.60
2023-04-18T18:42:36.792Z,44.70
2023-04-18T18:45:04.459Z,44.70
2023-04-18T18:47:31.165Z,44.70
2023-04-18T18:49:58.037Z,44.70
2023-04-18T18:52:25.199Z,44.70
2023-04-18T18:54:52.620Z,44.70
2023-04-18T18:57:19.304Z,44.70
2023-04-18T18:59:46.126Z,44.70
2023-04-18T19:02:12.944Z,44.70
2023-04-18T19:04:39.877Z,44.70
2023-04-18T19:07:07.275Z,44.70
2023-04-18T19:09:34.291Z,44.70
2023-04-18T19:12:01.236Z,44.80
2023-04-18T19:14:27.921Z,44.80
2023-04-18T19:16:55.820Z,44.70
2023-04-18T19:19:22.554Z,44.80
2023-04-18T19:21:50.073Z,44.80
2023-04-18T19:24:18.709Z,44.80
2023-04-18T19:26:45.438Z,44.80
2023-04-18T19:29:14.329Z,44.80
2023-04-18T19:31:43.578Z,44.80
2023-04-18T19:34:10.921Z,44.80
2023-04-18T19:36:37.795Z,44.80
2023-04-18T19:39:04.489Z,44.80
2023-04-18T19:41:31.222Z,44.80
2023-04-18T19:43:57.889Z,44.80
2023-04-18T19:46:24.677Z,44.80
2023-04-18T19:48:51.488Z,44.80
2023-04-18T19:51:18.201Z,44.80
2023-04-18T19:53:44.928Z,44.80
2023-04-18T19:56:13.678Z,44.80
2023-04-18T19:58:45.353Z,44.90
2023-04-18T20:01:13.288Z,44.90
2023-04-18T20:03:40.735Z,44.80
2023-04-18T20:06:08.221Z,44.90
2023-04-18T20:08:36.711Z,44.90
2023-04-18T20:11:06.933Z,44.90
2023-04-18T20:13:34.677Z,44.90
2023-04-18T20:16:01.440Z,44.90
2023-04-18T20:18:30.337Z,44.90
2023-04-18T20:20:57.066Z,44.90
2023-04-18T20:23:23.904Z,44.80
2023-04-18T20:25:50.883Z,44.80
2023-04-18T20:28:17.795Z,44.90
2023-04-18T20:30:45.672Z,44.80
2023-04-18T20:33:12.765Z,44.80
2023-04-18T20:35:40.508Z,44.80
2023-04-18T20:38:08.935Z,44.80
2023-04-18T20:40:36.075Z,44.80
2023-04-18T20:43:03.201Z,44.80
2023-04-18T20:45:34.648Z,44.80
2023-04-18T20:48:02.055Z,44.80
2023-04-18T20:50:28.948Z,44.80
2023-04-18T20:52:55.772Z,44.70
2023-04-18T20:55:22.624Z,44.80
2023-04-18T20:57:49.274Z,44.70
2023-04-18T21:00:16.159Z,44.80
2023-04-18T21:02:44.680Z,44.70
2023-04-18T21:05:11.435Z,44.80
2023-04-18T21:07:38.358Z,44.70
2023-04-18T21:10:05.661Z,44.70
2023-04-18T21:12:32.353Z,44.70
2023-04-18T21:14:59.042Z,44.70
2023-04-18T21:17:25.965Z,44.70
2023-04-18T21:19:52.817Z,44.70
2023-04-18T21:22:19.781Z,44.70
2023-04-18T21:24:46.975Z,44.70
2023-04-18T21:27:15.817Z,44.60
2023-04-18T21:29:42.564Z,44.70
2023-04-18T21:32:09.348Z,44.70
2023-04-18T21:34:35.990Z,44.60
2023-04-18T21:37:02.763Z,44.60
2023-04-18T21:39:29.547Z,44.60
2023-04-18T21:41:57.175Z,44.70
2023-04-18T21:44:23.883Z,44.70
2023-04-18T21:46:50.884Z,44.60
2023-04-18T21:49:17.627Z,44.70
2023-04-18T21:51:44.939Z,44.70
2023-04-18T21:54:11.789Z,44.70
2023-04-18T21:56:38.720Z,44.70
2023-04-18T21:59:05.461Z,44.80
2023-04-18T22:01:34.561Z,44.90
2023-04-18T22:04:02.056Z,44.80
2023-04-18T22:06:29.797Z,44.90
2023-04-18T22:08:56.542Z,44.90
2023-04-18T22:11:23.664Z,44.90
2023-04-18T22:13:53.997Z,44.90
2023-04-18T22:16:24.651Z,44.90
2023-04-18T22:18:51.897Z,44.90
2023-04-18T22:21:18.775Z,44.90
2023-04-18T22:23:45.635Z,44.90
2023-04-18T22:26:12.481Z,44.90
2023-04-18T22:28:39.173Z,44.90
2023-04-18T22:31:06.015Z,44.90
2023-04-18T22:33:32.753Z,45.00
2023-04-18T22:35:59.516Z,45.00
2023-04-18T22:38:26.203Z,45.00
2023-04-18T22:40:53.040Z,45.00
2023-04-18T22:43:23.604Z,45.00
2023-04-18T22:45:51.015Z,45.00
2023-04-18T22:48:17.980Z,45.10
2023-04-18T22:50:44.760Z,45.00
2023-04-18T22:53:11.625Z,45.10
2023-04-18T22:55:42.799Z,45.10
2023-04-18T22:58:10.519Z,45.10
2023-04-18T23:00:37.655Z,45.10
2023-04-18T23:03:05.081Z,45.10
2023-04-18T23:05:32.148Z,45.10
2023-04-18T23:08:00.333Z,45.10
2023-04-18T23:10:27.462Z,45.10
2023-04-18T23:12:54.199Z,45.20
2023-04-18T23:15:22.832Z,45.20
2023-04-18T23:17:52.224Z,45.20
2023-04-18T23:20:19.736Z,45.20
2023-04-18T23:22:47.540Z,45.20
2023-04-18T23:25:14.232Z,45.20
2023-04-18T23:27:41.038Z,45.20
2023-04-18T23:30:08.335Z,45.20
2023-04-18T23:32:35.084Z,45.20
2023-04-18T23:35:04.271Z,45.20
2023-04-18T23:37:31.534Z,45.20
2023-04-18T23:39:59.854Z,45.20
2023-04-18T23:42:26.654Z,45.20
2023-04-18T23:44:54.415Z,45.20
2023-04-18T23:47:21.825Z,45.30
2023-04-18T23:49:48.604Z,45.30
2023-04-18T23:52:15.451Z,45.30
2023-04-18T23:54:42.180Z,45.30
2023-04-18T23:57:08.992Z,45.30
2023-04-18T23:59:35.706Z,45.20
